Terminal Aerodrome Forecast
Issued by NWS

Home | Current Version | Previous Version | Text Only | Print | Product List | Glossary On
Versions: 1 2 3 4 5 6 7 8 9 10 11 12
000
FTUS45 KFGZ 191100
TAFSEZ
TAF
KSEZ 191127Z 1912/2012 05010KT P6SM SCT070 SCT120
     FM191900 22009KT P6SM BKN060 BKN120
     FM200230 05009KT P6SM SCT060 SCT120=

USA.gov is the U.S. government's official web portal to all federal, state and local government web resources and services.